sensor_id;sensor_type;location;lat;lon;timestamp;pressure;altitude;pressure_sealevel;temperature;humidity
53262;BME280;39658;51.090;-1.786;2023-05-15T00:02:05;101752.06;;;10.72;100.00
53262;BME280;39658;51.090;-1.786;2023-05-15T00:04:33;101728.41;;;10.70;100.00
53262;BME280;39658;51.090;-1.786;2023-05-15T00:07:00;101711.59;;;10.73;100.00
53262;BME280;39658;51.090;-1.786;2023-05-15T00:09:27;101690.31;;;10.76;100.00
53262;BME280;39658;51.090;-1.786;2023-05-15T00:11:53;101689.72;;;10.71;100.00
53262;BME280;39658;51.090;-1.786;2023-05-15T00:14:20;101672.25;;;10.68;100.00
53262;BME280;39658;51.090;-1.786;2023-05-15T00:16:47;101670.63;;;10.66;100.00
53262;BME280;39658;51.090;-1.786;2023-05-15T00:19:14;101657.44;;;10.66;100.00
53262;BME280;39658;51.090;-1.786;2023-05-15T00:21:42;101653.25;;;10.62;100.00
53262;BME280;39658;51.090;-1.786;2023-05-15T00:24:09;101643.72;;;10.59;100.00
53262;BME280;39658;51.090;-1.786;2023-05-15T00:26:36;101641.38;;;10.53;100.00
53262;BME280;39658;51.090;-1.786;2023-05-15T00:29:02;101623.09;;;10.50;100.00
53262;BME280;39658;51.090;-1.786;2023-05-15T00:31:29;101600.38;;;10.47;100.00
53262;BME280;39658;51.090;-1.786;2023-05-15T00:33:57;101584.88;;;10.41;100.00
53262;BME280;39658;51.090;-1.786;2023-05-15T00:36:24;101572.09;;;10.33;100.00
53262;BME280;39658;51.090;-1.786;2023-05-15T00:38:52;101559.13;;;10.29;100.00
53262;BME280;39658;51.090;-1.786;2023-05-15T00:41:21;101546.88;;;10.28;100.00
53262;BME280;39658;51.090;-1.786;2023-05-15T00:43:49;101531.97;;;10.27;100.00
53262;BME280;39658;51.090;-1.786;2023-05-15T00:46:16;101523.38;;;10.23;100.00
53262;BME280;39658;51.090;-1.786;2023-05-15T00:48:45;101506.72;;;10.22;100.00
53262;BME280;39658;51.090;-1.786;2023-05-15T00:51:13;101489.13;;;10.23;100.00
53262;BME280;39658;51.090;-1.786;2023-05-15T00:53:41;101480.47;;;10.21;100.00
53262;BME280;39658;51.090;-1.786;2023-05-15T00:56:10;101460.22;;;10.21;100.00
53262;BME280;39658;51.090;-1.786;2023-05-15T00:58:38;101457.50;;;10.23;100.00
53262;BME280;39658;51.090;-1.786;2023-05-15T01:01:05;101455.69;;;10.23;100.00
53262;BME280;39658;51.090;-1.786;2023-05-15T01:03:32;101455.78;;;10.22;100.00
53262;BME280;39658;51.090;-1.786;2023-05-15T01:05:58;101454.88;;;10.23;100.00
53262;BME280;39658;51.090;-1.786;2023-05-15T01:08:26;101447.03;;;10.21;100.00
53262;BME280;39658;51.090;-1.786;2023-05-15T01:10:59;101454.03;;;10.22;100.00
53262;BME280;39658;51.090;-1.786;2023-05-15T01:13:29;101447.78;;;10.23;100.00
53262;BME280;39658;51.090;-1.786;2023-05-15T01:15:57;101451.38;;;10.22;100.00
53262;BME280;39658;51.090;-1.786;2023-05-15T01:18:24;101443.31;;;10.26;100.00
53262;BME280;39658;51.090;-1.786;2023-05-15T01:21:10;101442.38;;;10.27;100.00
53262;BME280;39658;51.090;-1.786;2023-05-15T01:23:53;101437.97;;;10.27;100.00
53262;BME280;39658;51.090;-1.786;2023-05-15T01:26:53;101435.09;;;10.32;100.00
53262;BME280;39658;51.090;-1.786;2023-05-15T01:29:29;101436.84;;;10.31;100.00
53262;BME280;39658;51.090;-1.786;2023-05-15T01:32:00;101441.16;;;10.34;100.00
53262;BME280;39658;51.090;-1.786;2023-05-15T01:34:32;101434.16;;;10.33;100.00
53262;BME280;39658;51.090;-1.786;2023-05-15T01:37:02;101421.78;;;10.35;100.00
53262;BME280;39658;51.090;-1.786;2023-05-15T01:39:31;101419.06;;;10.36;100.00
53262;BME280;39658;51.090;-1.786;2023-05-15T01:42:02;101411.91;;;10.38;100.00
53262;BME280;39658;51.090;-1.786;2023-05-15T01:44:35;101415.22;;;10.42;100.00
53262;BME280;39658;51.090;-1.786;2023-05-15T01:47:07;101420.56;;;10.40;100.00
53262;BME280;39658;51.090;-1.786;2023-05-15T01:49:37;101416.63;;;10.32;100.00
53262;BME280;39658;51.090;-1.786;2023-05-15T01:52:09;101409.66;;;10.31;100.00
53262;BME280;39658;51.090;-1.786;2023-05-15T01:54:39;101414.25;;;10.27;100.00
53262;BME280;39658;51.090;-1.786;2023-05-15T01:57:08;101413.19;;;10.14;100.00
53262;BME280;39658;51.090;-1.786;2023-05-15T01:59:37;101414.75;;;10.00;100.00
53262;BME280;39658;51.090;-1.786;2023-05-15T02:02:05;101417.63;;;9.96;100.00
53262;BME280;39658;51.090;-1.786;2023-05-15T02:04:33;101408.19;;;9.92;100.00
53262;BME280;39658;51.090;-1.786;2023-05-15T02:07:00;101414.63;;;9.86;100.00
53262;BME280;39658;51.090;-1.786;2023-05-15T02:09:30;101404.25;;;9.83;100.00
53262;BME280;39658;51.090;-1.786;2023-05-15T02:11:59;101406.97;;;9.81;100.00
53262;BME280;39658;51.090;-1.786;2023-05-15T02:14:27;101405.25;;;9.80;100.00
53262;BME280;39658;51.090;-1.786;2023-05-15T02:16:55;101404.41;;;9.80;100.00
53262;BME280;39658;51.090;-1.786;2023-05-15T02:19:22;101408.75;;;9.81;100.00
53262;BME280;39658;51.090;-1.786;2023-05-15T02:21:50;101416.66;;;9.81;100.00
53262;BME280;39658;51.090;-1.786;2023-05-15T02:24:16;101414.94;;;9.80;100.00
53262;BME280;39658;51.090;-1.786;2023-05-15T02:26:48;101414.09;;;9.79;100.00
53262;BME280;39658;51.090;-1.786;2023-05-15T02:29:19;101427.50;;;9.75;100.00
53262;BME280;39658;51.090;-1.786;2023-05-15T02:31:51;101427.75;;;9.70;100.00
53262;BME280;39658;51.090;-1.786;2023-05-15T02:34:28;101424.50;;;9.65;100.00
53262;BME280;39658;51.090;-1.786;2023-05-15T02:36:59;101422.94;;;9.61;100.00
53262;BME280;39658;51.090;-1.786;2023-05-15T02:39:26;101432.00;;;9.55;100.00
53262;BME280;39658;51.090;-1.786;2023-05-15T02:41:55;101426.13;;;9.50;100.00
53262;BME280;39658;51.090;-1.786;2023-05-15T02:44:23;101426.34;;;9.45;100.00
53262;BME280;39658;51.090;-1.786;2023-05-15T02:46:51;101437.88;;;9.43;100.00
53262;BME280;39658;51.090;-1.786;2023-05-15T02:49:19;101437.94;;;9.41;100.00
53262;BME280;39658;51.090;-1.786;2023-05-15T02:51:49;101446.72;;;9.42;100.00
53262;BME280;39658;51.090;-1.786;2023-05-15T02:54:16;101458.53;;;9.33;100.00
53262;BME280;39658;51.090;-1.786;2023-05-15T02:56:43;101474.47;;;9.30;100.00
53262;BME280;39658;51.090;-1.786;2023-05-15T02:59:10;101476.41;;;9.26;100.00
53262;BME280;39658;51.090;-1.786;2023-05-15T03:01:37;101486.94;;;9.26;100.00
53262;BME280;39658;51.090;-1.786;2023-05-15T03:04:04;101486.22;;;9.23;100.00
53262;BME280;39658;51.090;-1.786;2023-05-15T03:06:31;101495.13;;;9.20;100.00
53262;BME280;39658;51.090;-1.786;2023-05-15T03:08:59;101486.59;;;9.15;100.00
53262;BME280;39658;51.090;-1.786;2023-05-15T03:11:26;101486.81;;;9.10;100.00
53262;BME280;39658;51.090;-1.786;2023-05-15T03:13:52;101489.72;;;9.04;100.00
53262;BME280;39658;51.090;-1.786;2023-05-15T03:16:19;101492.66;;;8.98;100.00
53262;BME280;39658;51.090;-1.786;2023-05-15T03:18:46;101487.84;;;8.89;100.00
53262;BME280;39658;51.090;-1.786;2023-05-15T03:21:13;101495.06;;;8.84;100.00
53262;BME280;39658;51.090;-1.786;2023-05-15T03:23:39;101492.59;;;8.80;100.00
53262;BME280;39658;51.090;-1.786;2023-05-15T03:26:08;101492.03;;;8.74;100.00
53262;BME280;39658;51.090;-1.786;2023-05-15T03:28:35;101492.16;;;8.71;100.00
53262;BME280;39658;51.090;-1.786;2023-05-15T03:31:02;101492.38;;;8.66;100.00
53262;BME280;39658;51.090;-1.786;2023-05-15T03:33:29;101487.13;;;8.66;100.00
53262;BME280;39658;51.090;-1.786;2023-05-15T03:35:56;101488.09;;;8.63;100.00
53262;BME280;39658;51.090;-1.786;2023-05-15T03:38:23;101487.53;;;8.57;100.00
53262;BME280;39658;51.090;-1.786;2023-05-15T03:40:49;101491.13;;;8.54;100.00
53262;BME280;39658;51.090;-1.786;2023-05-15T03:43:18;101501.78;;;8.51;100.00
53262;BME280;39658;51.090;-1.786;2023-05-15T03:45:44;101496.59;;;8.50;100.00
53262;BME280;39658;51.090;-1.786;2023-05-15T03:48:11;101497.63;;;8.47;100.00
53262;BME280;39658;51.090;-1.786;2023-05-15T03:50:38;101503.72;;;8.48;100.00
53262;BME280;39658;51.090;-1.786;2023-05-15T03:53:04;101506.34;;;8.48;100.00
53262;BME280;39658;51.090;-1.786;2023-05-15T03:55:31;101502.94;;;8.46;100.00
53262;BME280;39658;51.090;-1.786;2023-05-15T03:57:58;101507.25;;;8.47;100.00
53262;BME280;39658;51.090;-1.786;2023-05-15T04:00:26;101509.13;;;8.43;100.00
53262;BME280;39658;51.090;-1.786;2023-05-15T04:02:53;101508.28;;;8.42;100.00
53262;BME280;39658;51.090;-1.786;2023-05-15T04:05:20;101514.66;;;8.37;100.00
53262;BME280;39658;51.090;-1.786;2023-05-15T04:07:47;101511.25;;;8.35;100.00
53262;BME280;39658;51.090;-1.786;2023-05-15T04:10:13;101520.75;;;8.37;100.00
53262;BME280;39658;51.090;-1.786;2023-05-15T04:12:40;101528.66;;;8.37;100.00
53262;BME280;39658;51.090;-1.786;2023-05-15T04:15:14;101538.38;;;8.35;100.00
53262;BME280;39658;51.090;-1.786;2023-05-15T04:17:43;101556.84;;;8.34;100.00
53262;BME280;39658;51.090;-1.786;2023-05-15T04:20:11;101563.94;;;8.32;100.00
53262;BME280;39658;51.090;-1.786;2023-05-15T04:22:38;101573.66;;;8.30;100.00
53262;BME280;39658;51.090;-1.786;2023-05-15T04:25:05;101574.59;;;8.29;100.00
53262;BME280;39658;51.090;-1.786;2023-05-15T04:27:33;101593.03;;;8.27;100.00
53262;BME280;39658;51.090;-1.786;2023-05-15T04:30:00;101593.03;;;8.27;100.00
53262;BME280;39658;51.090;-1.786;2023-05-15T04:32:27;101594.88;;;8.25;100.00
53262;BME280;39658;51.090;-1.786;2023-05-15T04:34:55;101600.28;;;8.22;100.00
53262;BME280;39658;51.090;-1.786;2023-05-15T04:37:22;101602.97;;;8.20;100.00
53262;BME280;39658;51.090;-1.786;2023-05-15T04:39:49;101595.28;;;8.16;100.00
53262;BME280;39658;51.090;-1.786;2023-05-15T04:42:15;101613.72;;;8.14;100.00
53262;BME280;39658;51.090;-1.786;2023-05-15T04:44:42;101608.66;;;8.09;100.00
53262;BME280;39658;51.090;-1.786;2023-05-15T04:47:09;101614.03;;;8.06;100.00
53262;BME280;39658;51.090;-1.786;2023-05-15T04:49:36;101619.47;;;8.02;100.00
53262;BME280;39658;51.090;-1.786;2023-05-15T04:52:05;101625.59;;;8.02;100.00
53262;BME280;39658;51.090;-1.786;2023-05-15T04:54:32;101635.25;;;8.02;100.00
53262;BME280;39658;51.090;-1.786;2023-05-15T04:56:59;101640.50;;;8.02;100.00
53262;BME280;39658;51.090;-1.786;2023-05-15T04:59:26;101642.25;;;8.01;100.00
53262;BME280;39658;51.090;-1.786;2023-05-15T05:01:53;101649.47;;;7.96;100.00
53262;BME280;39658;51.090;-1.786;2023-05-15T05:04:19;101656.44;;;7.97;100.00
53262;BME280;39658;51.090;-1.786;2023-05-15T05:06:46;101651.91;;;8.01;100.00
53262;BME280;39658;51.090;-1.786;2023-05-15T05:09:14;101658.88;;;8.02;100.00
53262;BME280;39658;51.090;-1.786;2023-05-15T05:11:41;101664.06;;;8.03;100.00
53262;BME280;39658;51.090;-1.786;2023-05-15T05:14:08;101668.13;;;8.11;100.00
53262;BME280;39658;51.090;-1.786;2023-05-15T05:16:35;101674.22;;;8.13;100.00
53262;BME280;39658;51.090;-1.786;2023-05-15T05:19:02;101669.91;;;8.10;100.00
53262;BME280;39658;51.090;-1.786;2023-05-15T05:21:29;101685.38;;;8.18;100.00
53262;BME280;39658;51.090;-1.786;2023-05-15T05:23:56;101685.38;;;8.18;100.00
53262;BME280;39658;51.090;-1.786;2023-05-15T05:26:24;101698.38;;;8.21;100.00
53262;BME280;39658;51.090;-1.786;2023-05-15T05:28:51;101712.97;;;8.28;100.00
53262;BME280;39658;51.090;-1.786;2023-05-15T05:31:19;101724.41;;;8.27;100.00
53262;BME280;39658;51.090;-1.786;2023-05-15T05:33:46;101742.81;;;8.27;100.00
53262;BME280;39658;51.090;-1.786;2023-05-15T05:36:13;101760.19;;;8.30;100.00
53262;BME280;39658;51.090;-1.786;2023-05-15T05:38:40;101768.88;;;8.32;100.00
53262;BME280;39658;51.090;-1.786;2023-05-15T05:41:07;101791.41;;;8.37;100.00
53262;BME280;39658;51.090;-1.786;2023-05-15T05:43:35;101811.53;;;8.38;100.00
53262;BME280;39658;51.090;-1.786;2023-05-15T05:46:02;101826.25;;;8.44;100.00
53262;BME280;39658;51.090;-1.786;2023-05-15T05:48:29;101860.38;;;8.46;100.00
53262;BME280;39658;51.090;-1.786;2023-05-15T05:50:56;101874.22;;;8.49;100.00
53262;BME280;39658;51.090;-1.786;2023-05-15T05:53:23;101898.78;;;8.48;100.00
53262;BME280;39658;51.090;-1.786;2023-05-15T05:55:50;101922.63;;;8.43;100.00
53262;BME280;39658;51.090;-1.786;2023-05-15T05:58:17;101938.34;;;8.45;100.00
53262;BME280;39658;51.090;-1.786;2023-05-15T06:00:45;101960.22;;;8.46;100.00
53262;BME280;39658;51.090;-1.786;2023-05-15T06:03:12;101985.72;;;8.42;100.00
53262;BME280;39658;51.090;-1.786;2023-05-15T06:05:39;101999.91;;;8.38;100.00
53262;BME280;39658;51.090;-1.786;2023-05-15T06:08:06;102007.19;;;8.30;100.00
53262;BME280;39658;51.090;-1.786;2023-05-15T06:10:33;102024.78;;;8.27;100.00
53262;BME280;39658;51.090;-1.786;2023-05-15T06:13:00;102030.03;;;8.27;100.00
53262;BME280;39658;51.090;-1.786;2023-05-15T06:15:27;102046.53;;;8.31;100.00
53262;BME280;39658;51.090;-1.786;2023-05-15T06:17:55;102059.53;;;8.36;100.00
53262;BME280;39658;51.090;-1.786;2023-05-15T06:20:22;102075.06;;;8.42;100.00
53262;BME280;39658;51.090;-1.786;2023-05-15T06:22:49;102085.34;;;8.50;100.00
53262;BME280;39658;51.090;-1.786;2023-05-15T06:25:16;102103.16;;;8.67;100.00
53262;BME280;39658;51.090;-1.786;2023-05-15T06:27:43;102111.88;;;8.69;100.00
53262;BME280;39658;51.090;-1.786;2023-05-15T06:30:11;102131.81;;;8.74;100.00
53262;BME280;39658;51.090;-1.786;2023-05-15T06:32:38;102168.19;;;8.87;100.00
53262;BME280;39658;51.090;-1.786;2023-05-15T06:35:08;102205.78;;;8.90;100.00
53262;BME280;39658;51.090;-1.786;2023-05-15T06:37:35;102246.47;;;9.05;100.00
53262;BME280;39658;51.090;-1.786;2023-05-15T06:40:02;102284.69;;;9.15;100.00
53262;BME280;39658;51.090;-1.786;2023-05-15T06:42:29;102311.38;;;9.05;100.00
53262;BME280;39658;51.090;-1.786;2023-05-15T06:44:56;102323.94;;;8.96;100.00
53262;BME280;39658;51.090;-1.786;2023-05-15T06:47:24;102339.09;;;8.88;100.00
53262;BME280;39658;51.090;-1.786;2023-05-15T06:49:52;102350.56;;;8.87;100.00
53262;BME280;39658;51.090;-1.786;2023-05-15T06:52:20;102365.81;;;8.76;100.00
53262;BME280;39658;51.090;-1.786;2023-05-15T06:54:47;102368.63;;;8.70;100.00
53262;BME280;39658;51.090;-1.786;2023-05-15T06:57:14;102381.69;;;8.73;100.00
53262;BME280;39658;51.090;-1.786;2023-05-15T06:59:41;102372.84;;;8.75;100.00
53262;BME280;39658;51.090;-1.786;2023-05-15T07:02:08;102381.47;;;8.79;100.00
53262;BME280;39658;51.090;-1.786;2023-05-15T07:04:35;102385.00;;;8.79;100.00
53262;BME280;39658;51.090;-1.786;2023-05-15T07:07:01;102389.28;;;8.82;100.00
53262;BME280;39658;51.090;-1.786;2023-05-15T07:09:29;102412.59;;;8.93;100.00
53262;BME280;39658;51.090;-1.786;2023-05-15T07:11:56;102428.16;;;9.01;100.00
53262;BME280;39658;51.090;-1.786;2023-05-15T07:14:23;102428.75;;;9.09;100.00
53262;BME280;39658;51.090;-1.786;2023-05-15T07:16:50;102439.88;;;9.19;100.00
53262;BME280;39658;51.090;-1.786;2023-05-15T07:19:17;102448.16;;;9.33;100.00
53262;BME280;39658;51.090;-1.786;2023-05-15T07:21:45;102455.13;;;9.61;100.00
53262;BME280;39658;51.090;-1.786;2023-05-15T07:24:12;102454.50;;;9.79;100.00
53262;BME280;39658;51.090;-1.786;2023-05-15T07:26:40;102478.34;;;10.00;100.00
53262;BME280;39658;51.090;-1.786;2023-05-15T07:29:07;102499.91;;;10.11;100.00
53262;BME280;39658;51.090;-1.786;2023-05-15T07:31:33;102508.44;;;10.19;100.00
53262;BME280;39658;51.090;-1.786;2023-05-15T07:34:00;102513.38;;;10.29;100.00
53262;BME280;39658;51.090;-1.786;2023-05-15T07:36:27;102531.72;;;10.32;100.00
53262;BME280;39658;51.090;-1.786;2023-05-15T07:38:54;102543.66;;;10.42;100.00
53262;BME280;39658;51.090;-1.786;2023-05-15T07:41:20;102541.31;;;10.34;100.00
53262;BME280;39658;51.090;-1.786;2023-05-15T07:43:49;102549.50;;;10.52;100.00
53262;BME280;39658;51.090;-1.786;2023-05-15T07:46:15;102553.09;;;10.49;100.00
53262;BME280;39658;51.090;-1.786;2023-05-15T07:48:42;102551.25;;;10.51;100.00
53262;BME280;39658;51.090;-1.786;2023-05-15T07:51:09;102548.09;;;10.65;100.00
53262;BME280;39658;51.090;-1.786;2023-05-15T07:53:36;102543.97;;;10.82;100.00
53262;BME280;39658;51.090;-1.786;2023-05-15T07:56:03;102562.66;;;10.99;100.00
53262;BME280;39658;51.090;-1.786;2023-05-15T07:58:29;102552.13;;;11.21;100.00
53262;BME280;39658;51.090;-1.786;2023-05-15T08:01:01;102548.44;;;11.47;100.00
53262;BME280;39658;51.090;-1.786;2023-05-15T08:03:27;102548.63;;;11.43;100.00
53262;BME280;39658;51.090;-1.786;2023-05-15T08:05:54;102555.63;;;11.66;100.00
53262;BME280;39658;51.090;-1.786;2023-05-15T08:08:21;102520.50;;;11.84;100.00
53262;BME280;39658;51.090;-1.786;2023-05-15T08:10:48;102514.91;;;11.92;100.00
53262;BME280;39658;51.090;-1.786;2023-05-15T08:13:15;102528.22;;;12.30;100.00
53262;BME280;39658;51.090;-1.786;2023-05-15T08:15:42;102489.72;;;12.44;100.00
53262;BME280;39658;51.090;-1.786;2023-05-15T08:18:10;102438.31;;;12.68;100.00
53262;BME280;39658;51.090;-1.786;2023-05-15T08:20:37;102401.03;;;12.73;100.00
53262;BME280;39658;51.090;-1.786;2023-05-15T08:23:04;102328.50;;;12.77;100.00
53262;BME280;39658;51.090;-1.786;2023-05-15T08:25:31;102306.47;;;12.77;100.00
53262;BME280;39658;51.090;-1.786;2023-05-15T08:27:57;102334.28;;;12.85;100.00
53262;BME280;39658;51.090;-1.786;2023-05-15T08:30:24;102297.44;;;12.98;100.00
53262;BME280;39658;51.090;-1.786;2023-05-15T08:32:51;102278.97;;;13.14;100.00
53262;BME280;39658;51.090;-1.786;2023-05-15T08:35:19;102199.34;;;13.17;100.00
53262;BME280;39658;51.090;-1.786;2023-05-15T08:37:46;102062.22;;;12.90;100.00
53262;BME280;39658;51.090;-1.786;2023-05-15T08:40:13;102111.50;;;12.60;100.00
53262;BME280;39658;51.090;-1.786;2023-05-15T08:42:43;102214.03;;;13.07;100.00
53262;BME280;39658;51.090;-1.786;2023-05-15T08:45:11;102237.66;;;13.61;100.00
53262;BME280;39658;51.090;-1.786;2023-05-15T08:47:40;102137.84;;;13.92;100.00
53262;BME280;39658;51.090;-1.786;2023-05-15T08:50:09;102114.09;;;14.21;100.00
53262;BME280;39658;51.090;-1.786;2023-05-15T08:52:40;102041.59;;;14.06;100.00
53262;BME280;39658;51.090;-1.786;2023-05-15T08:55:08;102096.25;;;14.08;100.00
53262;BME280;39658;51.090;-1.786;2023-05-15T08:57:35;102050.63;;;14.17;100.00
53262;BME280;39658;51.090;-1.786;2023-05-15T09:00:02;102014.53;;;14.58;100.00
53262;BME280;39658;51.090;-1.786;2023-05-15T09:02:33;102048.44;;;15.11;100.00
53262;BME280;39658;51.090;-1.786;2023-05-15T09:05:00;101977.09;;;14.19;100.00
53262;BME280;39658;51.090;-1.786;2023-05-15T09:07:28;101968.13;;;13.17;100.00
53262;BME280;39658;51.090;-1.786;2023-05-15T09:09:58;102026.50;;;13.92;100.00
53262;BME280;39658;51.090;-1.786;2023-05-15T09:12:26;102121.97;;;14.81;100.00
53262;BME280;39658;51.090;-1.786;2023-05-15T09:15:07;102047.19;;;14.75;100.00
53262;BME280;39658;51.090;-1.786;2023-05-15T09:17:35;101884.06;;;14.79;100.00
53262;BME280;39658;51.090;-1.786;2023-05-15T09:20:02;101876.22;;;13.78;100.00
53262;BME280;39658;51.090;-1.786;2023-05-15T09:22:33;101910.94;;;12.82;100.00
53262;BME280;39658;51.090;-1.786;2023-05-15T09:25:02;102036.19;;;13.31;100.00
53262;BME280;39658;51.090;-1.786;2023-05-15T09:27:29;102060.31;;;14.18;100.00
53262;BME280;39658;51.090;-1.786;2023-05-15T09:30:07;102033.59;;;14.94;100.00
53262;BME280;39658;51.090;-1.786;2023-05-15T09:32:34;102010.25;;;15.53;100.00
53262;BME280;39658;51.090;-1.786;2023-05-15T09:35:03;101872.25;;;16.02;100.00
53262;BME280;39658;51.090;-1.786;2023-05-15T09:37:32;101022.09;;;16.43;100.00
53262;BME280;39658;51.090;-1.786;2023-05-15T09:40:08;100828.84;;;16.51;100.00
53262;BME280;39658;51.090;-1.786;2023-05-15T09:42:36;101198.81;;;16.94;100.00
53262;BME280;39658;51.090;-1.786;2023-05-15T09:45:04;101277.41;;;16.88;100.00
53262;BME280;39658;51.090;-1.786;2023-05-15T09:47:31;101328.69;;;15.91;100.00
53262;BME280;39658;51.090;-1.786;2023-05-15T09:49:59;101342.56;;;15.72;100.00
53262;BME280;39658;51.090;-1.786;2023-05-15T09:52:26;101347.88;;;16.06;100.00
53262;BME280;39658;51.090;-1.786;2023-05-15T09:54:55;101360.22;;;15.38;100.00
53262;BME280;39658;51.090;-1.786;2023-05-15T09:57:23;101336.25;;;16.41;100.00
53262;BME280;39658;51.090;-1.786;2023-05-15T09:59:50;101348.25;;;16.02;100.00
53262;BME280;39658;51.090;-1.786;2023-05-15T10:02:24;101350.75;;;16.81;100.00
53262;BME280;39658;51.090;-1.786;2023-05-15T10:04:56;101364.72;;;16.07;100.00
53262;BME280;39658;51.090;-1.786;2023-05-15T10:07:27;101367.84;;;15.07;100.00
53262;BME280;39658;51.090;-1.786;2023-05-15T10:09:54;101343.47;;;15.49;100.00
53262;BME280;39658;51.090;-1.786;2023-05-15T10:12:23;101349.47;;;16.09;100.00
53262;BME280;39658;51.090;-1.786;2023-05-15T10:14:53;101368.09;;;16.09;100.00
53262;BME280;39658;51.090;-1.786;2023-05-15T10:17:21;101374.00;;;16.35;100.00
53262;BME280;39658;51.090;-1.786;2023-05-15T10:19:49;101367.31;;;16.52;100.00
53262;BME280;39658;51.090;-1.786;2023-05-15T10:22:18;101364.88;;;16.60;100.00
53262;BME280;39658;51.090;-1.786;2023-05-15T10:24:51;101361.06;;;16.74;100.00
53262;BME280;39658;51.090;-1.786;2023-05-15T10:27:25;101361.63;;;17.00;100.00
53262;BME280;39658;51.090;-1.786;2023-05-15T10:29:53;101363.25;;;17.34;100.00
53262;BME280;39658;51.090;-1.786;2023-05-15T10:32:22;101360.06;;;17.61;100.00
53262;BME280;39658;51.090;-1.786;2023-05-15T10:34:50;101368.31;;;17.79;100.00
53262;BME280;39658;51.090;-1.786;2023-05-15T10:37:18;101359.63;;;18.08;100.00
53262;BME280;39658;51.090;-1.786;2023-05-15T10:39:46;101364.97;;;18.18;100.00
53262;BME280;39658;51.090;-1.786;2023-05-15T10:42:13;101379.47;;;16.77;100.00
53262;BME280;39658;51.090;-1.786;2023-05-15T10:44:42;101366.59;;;16.82;100.00
53262;BME280;39658;51.090;-1.786;2023-05-15T10:47:09;101374.63;;;15.82;100.00
53262;BME280;39658;51.090;-1.786;2023-05-15T10:49:36;101361.72;;;15.06;100.00
53262;BME280;39658;51.090;-1.786;2023-05-15T10:52:03;101347.66;;;14.32;100.00
53262;BME280;39658;51.090;-1.786;2023-05-15T10:54:30;101334.88;;;14.98;100.00
53262;BME280;39658;51.090;-1.786;2023-05-15T10:56:56;101321.50;;;16.26;100.00
53262;BME280;39658;51.090;-1.786;2023-05-15T10:59:30;101333.66;;;16.95;100.00
53262;BME280;39658;51.090;-1.786;2023-05-15T11:02:18;101353.38;;;17.67;100.00
53262;BME280;39658;51.090;-1.786;2023-05-15T11:04:46;101354.56;;;17.32;100.00
53262;BME280;39658;51.090;-1.786;2023-05-15T11:07:14;101353.59;;;18.06;100.00
53262;BME280;39658;51.090;-1.786;2023-05-15T11:09:42;101362.09;;;17.27;100.00
53262;BME280;39658;51.090;-1.786;2023-05-15T11:12:10;101377.66;;;17.21;100.00
53262;BME280;39658;51.090;-1.786;2023-05-15T11:14:38;101390.78;;;16.36;100.00
53262;BME280;39658;51.090;-1.786;2023-05-15T11:17:08;101382.25;;;16.21;100.00
53262;BME280;39658;51.090;-1.786;2023-05-15T11:19:54;101392.53;;;15.44;100.00
53262;BME280;39658;51.090;-1.786;2023-05-15T11:22:26;101387.66;;;15.96;100.00
53262;BME280;39658;51.090;-1.786;2023-05-15T11:24:57;101362.56;;;17.11;100.00
53262;BME280;39658;51.090;-1.786;2023-05-15T11:27:25;101356.00;;;18.19;100.00
53262;BME280;39658;51.090;-1.786;2023-05-15T11:30:06;101359.91;;;18.75;100.00
53262;BME280;39658;51.090;-1.786;2023-05-15T11:32:43;101366.91;;;18.56;100.00
53262;BME280;39658;51.090;-1.786;2023-05-15T11:35:11;101381.13;;;17.43;100.00
53262;BME280;39658;51.090;-1.786;2023-05-15T11:37:41;101393.78;;;16.65;100.00
53262;BME280;39658;51.090;-1.786;2023-05-15T11:40:12;101396.13;;;15.90;100.00
53262;BME280;39658;51.090;-1.786;2023-05-15T11:42:40;101390.31;;;15.96;100.00
53262;BME280;39658;51.090;-1.786;2023-05-15T11:45:08;101401.94;;;15.49;100.00
53262;BME280;39658;51.090;-1.786;2023-05-15T11:47:36;101379.25;;;17.34;100.00
53262;BME280;39658;51.090;-1.786;2023-05-15T11:50:05;101371.69;;;18.43;100.00
53262;BME280;39658;51.090;-1.786;2023-05-15T11:52:32;101369.06;;;19.50;100.00
53262;BME280;39658;51.090;-1.786;2023-05-15T11:55:00;101367.88;;;20.10;89.09
53262;BME280;39658;51.090;-1.786;2023-05-15T11:57:29;101366.84;;;18.97;93.81
53262;BME280;39658;51.090;-1.786;2023-05-15T11:59:55;101390.81;;;17.86;96.84
53262;BME280;39658;51.090;-1.786;2023-05-15T12:02:22;101399.81;;;16.90;100.00
53262;BME280;39658;51.090;-1.786;2023-05-15T12:04:49;101395.16;;;17.03;100.00
53262;BME280;39658;51.090;-1.786;2023-05-15T12:07:18;101383.59;;;17.77;100.00
53262;BME280;39658;51.090;-1.786;2023-05-15T12:09:49;101387.72;;;17.39;100.00
53262;BME280;39658;51.090;-1.786;2023-05-15T12:12:18;101399.16;;;16.42;100.00
53262;BME280;39658;51.090;-1.786;2023-05-15T12:14:45;101405.72;;;15.57;100.00
53262;BME280;39658;51.090;-1.786;2023-05-15T12:17:12;101404.34;;;15.16;100.00
53262;BME280;39658;51.090;-1.786;2023-05-15T12:19:38;101399.91;;;15.17;100.00
53262;BME280;39658;51.090;-1.786;2023-05-15T12:22:06;101386.75;;;16.64;100.00
53262;BME280;39658;51.090;-1.786;2023-05-15T12:24:37;101397.34;;;16.31;100.00
53262;BME280;39658;51.090;-1.786;2023-05-15T12:27:07;101398.25;;;16.64;100.00
53262;BME280;39658;51.090;-1.786;2023-05-15T12:29:34;101409.44;;;16.13;100.00
53262;BME280;39658;51.090;-1.786;2023-05-15T12:32:03;101407.03;;;16.10;100.00
53262;BME280;39658;51.090;-1.786;2023-05-15T12:34:30;101379.38;;;17.74;100.00
53262;BME280;39658;51.090;-1.786;2023-05-15T12:36:57;101366.38;;;19.50;100.00
53262;BME280;39658;51.090;-1.786;2023-05-15T12:39:24;101365.22;;;20.10;100.00
53262;BME280;39658;51.090;-1.786;2023-05-15T12:41:53;101369.50;;;20.03;89.91